Time;durP1;ratioP1;P1;durP2;ratioP2;P2;SDS_P1;SDS_P2;PMS_P1;PMS_P2;Temp;Humidity;BMP_temperature;BMP_pressure;BME280_temperature;BME280_humidity;BME280_pressure;Samples;Min_cycle;Max_cycle;Signal;HPM_P1;HPM_P2
2023/03/19 00:01:05;;;;;;;3.43;2.03;;;12.40;99.90;;;;;;4975120;28;20207;-88
2023/03/19 00:03:35;;;;;;;2.30;2.10;;;12.40;99.90;;;;;;4982319;28;20259;-88
2023/03/19 00:06:07;;;;;;;3.73;1.80;;;12.40;99.90;;;;;;4980894;28;20946;-89
2023/03/19 00:08:41;;;;;;;2.30;2.03;;;12.30;99.90;;;;;;4982337;28;20204;-87
2023/03/19 00:11:11;;;;;;;3.03;2.07;;;12.30;99.90;;;;;;4980658;28;20232;-88
2023/03/19 00:13:39;;;;;;;2.20;2.00;;;12.30;99.90;;;;;;4988683;28;20242;-88
2023/03/19 00:16:07;;;;;;;3.13;2.47;;;12.30;99.90;;;;;;4982855;28;20211;-88
2023/03/19 00:18:35;;;;;;;2.90;2.47;;;12.20;99.90;;;;;;4986175;28;20226;-90
2023/03/19 00:21:04;;;;;;;2.30;2.10;;;12.20;99.90;;;;;;4983122;28;20285;-87
2023/03/19 00:23:35;;;;;;;6.63;2.60;;;12.10;99.90;;;;;;4973348;28;20211;-88
2023/03/19 00:26:06;;;;;;;3.10;2.50;;;12.10;99.90;;;;;;4979692;28;20203;-88
2023/03/19 00:28:36;;;;;;;2.30;1.97;;;12.00;99.90;;;;;;4977046;28;20262;-88
2023/03/19 00:31:08;;;;;;;2.27;1.97;;;12.10;99.90;;;;;;4987371;28;20273;-88
2023/03/19 00:33:37;;;;;;;2.60;2.23;;;12.00;99.90;;;;;;4982793;28;20277;-89
2023/03/19 00:36:05;;;;;;;2.43;2.23;;;12.00;99.90;;;;;;4977036;28;20302;-88
2023/03/19 00:38:35;;;;;;;3.17;2.30;;;12.00;99.90;;;;;;4979717;28;20597;-89
2023/03/19 00:41:04;;;;;;;2.57;2.37;;;12.00;99.90;;;;;;4999933;28;20203;-89
2023/03/19 00:43:32;;;;;;;2.77;2.27;;;11.90;99.90;;;;;;4981792;28;20243;-89
2023/03/19 00:46:00;;;;;;;3.43;2.40;;;11.90;99.90;;;;;;4983331;28;20207;-89
2023/03/19 00:48:34;;;;;;;3.43;2.40;;;11.90;99.90;;;;;;4986159;28;21069;-88
2023/03/19 00:51:06;;;;;;;4.30;2.90;;;11.90;99.90;;;;;;4983724;28;20226;-87
2023/03/19 00:53:39;;;;;;;3.17;2.70;;;11.80;99.90;;;;;;4986633;28;20211;-87
2023/03/19 00:56:11;;;;;;;2.50;2.30;;;11.80;99.90;;;;;;4986660;28;20226;-89
2023/03/19 00:58:41;;;;;;;4.30;2.40;;;11.80;99.90;;;;;;5000076;28;20211;-88
2023/03/19 01:01:14;;;;;;;3.57;2.53;;;11.80;99.90;;;;;;4987437;28;20226;-89
2023/03/19 01:03:44;;;;;;;3.40;2.40;;;11.70;99.90;;;;;;5003496;28;20223;-87
2023/03/19 01:06:13;;;;;;;2.10;1.90;;;11.70;99.90;;;;;;4986496;28;20715;-89
2023/03/19 01:08:44;;;;;;;2.20;2.00;;;11.70;99.90;;;;;;4987738;28;20232;-89
2023/03/19 01:11:14;;;;;;;2.33;2.10;;;11.70;99.90;;;;;;4978593;28;20233;-89
2023/03/19 01:13:41;;;;;;;3.30;2.27;;;11.70;99.90;;;;;;4978710;28;20227;-89
2023/03/19 01:16:09;;;;;;;2.30;2.10;;;11.60;99.90;;;;;;4983840;28;20204;-88
2023/03/19 01:18:37;;;;;;;2.57;1.83;;;11.60;99.90;;;;;;4974808;28;20228;-88
2023/03/19 01:21:06;;;;;;;3.00;1.83;;;11.60;99.90;;;;;;4988210;28;20299;-87
2023/03/19 01:23:34;;;;;;;3.67;2.10;;;11.60;99.90;;;;;;4985769;28;20274;-90
2023/03/19 01:26:01;;;;;;;3.93;2.07;;;11.60;99.90;;;;;;4981285;28;20199;-87
2023/03/19 01:28:29;;;;;;;2.40;1.97;;;11.60;99.90;;;;;;4981512;28;20222;-89
2023/03/19 01:31:06;;;;;;;2.20;1.83;;;11.60;99.90;;;;;;4982601;28;20247;-86
2023/03/19 01:33:33;;;;;;;3.73;2.03;;;11.50;99.90;;;;;;4981554;28;20255;-89
2023/03/19 01:36:04;;;;;;;4.30;2.07;;;11.50;99.90;;;;;;4985735;28;20218;-88
2023/03/19 01:38:31;;;;;;;3.77;2.07;;;11.50;99.90;;;;;;4981064;28;20218;-88
2023/03/19 01:41:01;;;;;;;2.17;1.93;;;11.40;99.90;;;;;;4972377;28;20272;-87
2023/03/19 01:43:30;;;;;;;3.37;1.80;;;11.60;99.90;;;;;;4981682;28;20637;-89
2023/03/19 01:46:27;;;;;;;3.00;2.13;;;11.40;99.90;;;;;;4984329;28;20214;-89
2023/03/19 01:48:58;;;;;;;2.73;1.93;;;11.40;99.90;;;;;;4984352;28;20318;-88
2023/03/19 01:51:31;;;;;;;3.27;2.30;;;11.30;99.90;;;;;;4982335;28;20267;-88
2023/03/19 01:54:03;;;;;;;3.80;2.30;;;11.30;99.90;;;;;;4975707;28;20239;-89
2023/03/19 01:56:33;;;;;;;2.20;2.00;;;11.20;99.90;;;;;;4979035;28;20691;-87
2023/03/19 01:59:10;;;;;;;3.77;2.90;;;11.20;99.90;;;;;;4979892;28;20199;-87
2023/03/19 02:01:52;;;;;;;2.50;2.30;;;11.10;99.90;;;;;;4985123;28;20226;-87
2023/03/19 02:04:22;;;;;;;4.63;2.73;;;11.10;99.90;;;;;;4982922;28;20215;-89
2023/03/19 02:06:50;;;;;;;4.17;2.83;;;11.10;99.90;;;;;;4986313;28;20276;-87
2023/03/19 02:09:18;;;;;;;3.83;3.30;;;11.10;99.90;;;;;;4999413;28;20724;-88
2023/03/19 02:11:47;;;;;;;6.63;3.43;;;11.10;99.90;;;;;;4980312;28;20235;-89
2023/03/19 02:14:14;;;;;;;4.53;3.13;;;11.20;99.90;;;;;;4980267;28;20227;-87
2023/03/19 02:16:41;;;;;;;6.10;3.10;;;11.10;99.90;;;;;;4980852;28;20204;-87
2023/03/19 02:19:26;;;;;;;5.27;2.67;;;11.10;99.90;;;;;;4977168;28;20691;-87
2023/03/19 02:21:55;;;;;;;3.27;2.97;;;11.10;99.90;;;;;;4983344;28;20854;-89
2023/03/19 02:24:36;;;;;;;4.97;3.10;;;11.10;99.90;;;;;;4977538;28;20207;-86
2023/03/19 02:27:08;;;;;;;4.83;3.10;;;11.20;99.90;;;;;;4978993;28;20242;-87
2023/03/19 02:29:37;;;;;;;4.30;3.27;;;11.00;99.90;;;;;;4975461;28;20338;-88
2023/03/19 02:32:04;;;;;;;5.70;3.50;;;11.10;99.90;;;;;;4974033;28;20754;-88
2023/03/19 02:34:40;;;;;;;4.80;3.30;;;10.90;99.90;;;;;;4976342;28;20213;-87
2023/03/19 02:37:26;;;;;;;4.40;3.27;;;10.80;99.90;;;;;;4976836;28;20210;-88
2023/03/19 02:39:59;;;;;;;3.97;3.17;;;10.80;99.90;;;;;;4976290;28;20207;-87
2023/03/19 02:42:29;;;;;;;6.13;3.50;;;10.80;99.90;;;;;;4976141;28;20208;-88
2023/03/19 02:45:00;;;;;;;5.83;3.53;;;10.70;99.90;;;;;;4977422;28;20219;-88
2023/03/19 02:47:28;;;;;;;6.87;3.50;;;10.70;99.90;;;;;;4980273;28;20859;-87
2023/03/19 02:49:55;;;;;;;4.57;3.30;;;10.70;99.90;;;;;;4980596;28;20281;-87
2023/03/19 02:52:22;;;;;;;6.03;3.40;;;10.70;99.90;;;;;;4981540;28;20623;-88
2023/03/19 02:54:50;;;;;;;4.03;3.63;;;10.70;99.90;;;;;;4981111;28;20271;-89
2023/03/19 02:57:17;;;;;;;6.37;3.50;;;10.70;99.90;;;;;;4987906;28;20267;-88
2023/03/19 02:59:51;;;;;;;6.40;3.93;;;10.80;99.90;;;;;;4979777;28;20562;-88
2023/03/19 03:02:19;;;;;;;4.63;3.67;;;10.80;99.90;;;;;;4980583;28;20260;-87
2023/03/19 03:04:49;;;;;;;4.63;3.53;;;10.80;99.90;;;;;;4980278;28;20219;-88
2023/03/19 03:07:16;;;;;;;4.20;3.70;;;10.80;99.90;;;;;;4981025;28;20221;-88
2023/03/19 03:09:47;;;;;;;5.23;3.53;;;10.90;99.90;;;;;;4979644;28;20227;-87
2023/03/19 03:12:14;;;;;;;4.67;3.80;;;10.90;99.90;;;;;;4973586;28;20275;-88
2023/03/19 03:14:42;;;;;;;4.87;3.97;;;10.80;99.90;;;;;;4988452;28;20237;-87
2023/03/19 03:17:12;;;;;;;6.93;4.40;;;11.00;99.90;;;;;;4975833;28;20214;-87
2023/03/19 03:19:39;;;;;;;5.03;4.43;;;11.00;99.90;;;;;;4979708;28;20270;-87
2023/03/19 03:22:06;;;;;;;6.13;3.83;;;11.00;99.90;;;;;;4992866;28;20214;-88
2023/03/19 03:24:34;;;;;;;4.73;4.13;;;11.00;99.90;;;;;;4976803;28;20214;-88
2023/03/19 03:27:02;;;;;;;7.13;4.10;;;11.10;99.90;;;;;;4993679;28;20210;-86
2023/03/19 03:29:31;;;;;;;6.37;4.17;;;11.00;99.90;;;;;;4976329;28;20254;-88
2023/03/19 03:31:58;;;;;;;5.83;4.40;;;11.10;99.90;;;;;;4972192;28;20266;-87
2023/03/19 03:34:28;;;;;;;5.80;3.90;;;11.10;99.90;;;;;;4973823;28;20224;-88
2023/03/19 03:36:58;;;;;;;5.13;4.23;;;11.10;99.90;;;;;;4962453;28;20207;-86
2023/03/19 03:39:25;;;;;;;5.63;3.47;;;11.10;99.90;;;;;;4977193;28;20764;-86
2023/03/19 03:41:54;;;;;;;4.57;3.70;;;11.10;99.90;;;;;;4978102;28;20332;-87
2023/03/19 03:44:21;;;;;;;5.13;4.00;;;11.10;99.90;;;;;;4977129;28;20233;-87
2023/03/19 03:46:50;;;;;;;4.40;3.70;;;11.10;99.90;;;;;;4995137;28;20687;-88
2023/03/19 03:49:19;;;;;;;4.67;3.63;;;11.00;99.90;;;;;;4996714;28;20714;-87
2023/03/19 03:51:47;;;;;;;5.10;4.00;;;11.00;99.90;;;;;;4994268;28;20226;-88
2023/03/19 03:54:15;;;;;;;4.63;3.87;;;11.00;99.90;;;;;;4977857;28;20257;-87
2023/03/19 03:56:43;;;;;;;5.13;3.90;;;11.10;99.90;;;;;;4986058;28;20209;-87
2023/03/19 03:59:11;;;;;;;4.93;4.17;;;11.00;99.90;;;;;;4979100;28;20287;-85
2023/03/19 04:01:38;;;;;;;5.50;4.30;;;10.90;99.90;;;;;;4979212;28;21061;-87
2023/03/19 04:04:05;;;;;;;6.50;4.13;;;10.80;99.90;;;;;;4980219;28;20961;-88
2023/03/19 04:06:33;;;;;;;5.43;4.30;;;10.80;99.90;;;;;;4984837;28;20550;-88
2023/03/19 04:09:06;;;;;;;5.57;4.70;;;10.70;99.90;;;;;;4997469;28;20217;-88
2023/03/19 04:11:36;;;;;;;7.23;4.80;;;10.60;99.90;;;;;;4997036;28;20725;-88
2023/03/19 04:14:03;;;;;;;6.33;4.70;;;10.50;99.90;;;;;;4976382;28;20261;-89
2023/03/19 04:16:30;;;;;;;6.83;4.63;;;10.60;99.90;;;;;;4974604;28;20245;-86
2023/03/19 04:18:57;;;;;;;6.63;4.70;;;10.40;99.90;;;;;;4977884;28;20265;-90
2023/03/19 04:21:27;;;;;;;6.77;4.53;;;10.40;99.90;;;;;;4975727;28;20213;-87
2023/03/19 04:23:53;;;;;;;7.43;4.80;;;10.40;99.90;;;;;;4976102;28;21067;-88
2023/03/19 04:26:21;;;;;;;8.40;5.40;;;10.30;99.90;;;;;;4976219;28;20585;-87
2023/03/19 04:28:48;;;;;;;8.90;5.20;;;10.30;99.90;;;;;;4977005;28;20209;-86
2023/03/19 04:31:16;;;;;;;7.60;5.03;;;10.30;99.90;;;;;;4987678;28;20218;-87
2023/03/19 04:33:43;;;;;;;8.90;6.17;;;10.20;99.90;;;;;;4976161;28;20242;-86
2023/03/19 04:36:11;;;;;;;7.23;5.83;;;10.20;99.90;;;;;;4970636;28;20279;-88
2023/03/19 04:38:38;;;;;;;9.13;6.10;;;10.20;99.90;;;;;;4974157;28;20732;-85
2023/03/19 04:41:08;;;;;;;8.57;6.27;;;10.20;99.90;;;;;;4975158;28;20227;-86
2023/03/19 04:43:36;;;;;;;7.73;6.07;;;10.20;99.90;;;;;;4974861;28;20197;-87
2023/03/19 04:46:05;;;;;;;9.33;6.37;;;10.10;99.90;;;;;;4976419;28;20225;-88
2023/03/19 04:48:34;;;;;;;9.30;6.87;;;10.10;99.90;;;;;;4977952;28;20260;-87
2023/03/19 04:51:03;;;;;;;10.60;6.53;;;10.10;99.90;;;;;;4979396;28;20893;-87
2023/03/19 04:53:31;;;;;;;10.07;6.97;;;10.10;99.90;;;;;;4970908;28;20212;-86
2023/03/19 04:56:00;;;;;;;13.47;7.40;;;10.10;99.90;;;;;;4980482;28;20202;-88
2023/03/19 04:58:29;;;;;;;11.60;7.50;;;10.00;99.90;;;;;;4979326;28;20724;-86
2023/03/19 05:00:56;;;;;;;11.53;7.07;;;10.10;99.90;;;;;;4976959;28;20208;-86
2023/03/19 05:03:26;;;;;;;11.50;7.77;;;10.10;99.90;;;;;;4977518;28;20641;-86
2023/03/19 05:05:55;;;;;;;11.20;7.40;;;10.20;99.90;;;;;;4972927;28;20209;-86
2023/03/19 05:08:22;;;;;;;10.93;7.70;;;10.20;99.90;;;;;;4976053;28;20303;-88
2023/03/19 05:10:49;;;;;;;10.77;7.67;;;10.20;99.90;;;;;;4976721;28;20263;-87
2023/03/19 05:13:16;;;;;;;11.93;8.60;;;10.20;99.90;;;;;;4977548;28;20216;-87
2023/03/19 05:15:52;;;;;;;10.97;7.73;;;10.10;99.90;;;;;;4996759;28;20195;-87
2023/03/19 05:18:22;;;;;;;11.83;7.57;;;10.10;99.90;;;;;;4978119;28;20240;-87
2023/03/19 05:20:52;;;;;;;10.63;8.47;;;10.00;99.90;;;;;;4977696;28;20356;-86
2023/03/19 05:23:19;;;;;;;12.37;8.10;;;9.90;99.90;;;;;;4996227;28;20685;-86
2023/03/19 05:25:52;;;;;;;15.70;10.23;;;9.90;99.90;;;;;;4997005;28;20207;-88
2023/03/19 05:28:19;;;;;;;15.63;10.43;;;9.90;99.90;;;;;;4982244;28;20227;-88
2023/03/19 05:30:46;;;;;;;17.30;11.20;;;9.80;99.90;;;;;;4982744;28;20207;-87
2023/03/19 05:33:14;;;;;;;22.23;13.10;;;9.80;99.90;;;;;;4990367;28;20298;-86
2023/03/19 05:35:41;;;;;;;20.73;12.83;;;9.70;99.90;;;;;;4983143;28;20199;-86
2023/03/19 05:38:10;;;;;;;24.57;13.63;;;9.80;99.90;;;;;;4991526;28;20200;-88
2023/03/19 05:40:40;;;;;;;24.87;14.33;;;9.80;99.90;;;;;;4979322;28;20243;-86
2023/03/19 05:43:09;;;;;;;28.60;14.57;;;9.80;99.90;;;;;;4987247;28;20210;-88
2023/03/19 05:45:37;;;;;;;25.27;14.83;;;9.80;99.90;;;;;;4979085;28;20204;-87
2023/03/19 05:48:05;;;;;;;30.63;15.33;;;9.80;99.90;;;;;;4986794;28;20298;-87
2023/03/19 05:50:34;;;;;;;32.63;16.30;;;9.70;99.90;;;;;;4998801;28;20263;-87
2023/03/19 05:53:02;;;;;;;26.37;16.20;;;9.80;99.90;;;;;;4995977;28;20227;-87
2023/03/19 05:55:30;;;;;;;28.90;16.43;;;9.70;99.90;;;;;;4985679;28;20294;-88
2023/03/19 05:57:59;;;;;;;33.70;16.50;;;9.70;99.90;;;;;;4991440;28;20199;-86
2023/03/19 06:00:26;;;;;;;32.57;17.77;;;9.70;99.90;;;;;;4999169;28;20230;-86
2023/03/19 06:02:56;;;;;;;31.07;16.67;;;9.70;99.90;;;;;;4987771;28;20278;-87
2023/03/19 06:05:24;;;;;;;30.03;16.90;;;9.70;99.90;;;;;;4988119;28;20738;-87
2023/03/19 06:07:51;;;;;;;36.43;17.77;;;9.80;99.90;;;;;;4978321;28;20207;-87
2023/03/19 06:10:19;;;;;;;32.47;16.27;;;9.90;99.90;;;;;;4991352;28;20230;-88
2023/03/19 06:12:50;;;;;;;29.87;16.87;;;9.90;99.90;;;;;;4986199;28;20734;-87
2023/03/19 06:15:25;;;;;;;30.27;17.17;;;10.00;99.90;;;;;;4981729;28;20242;-90
2023/03/19 06:17:52;;;;;;;29.73;15.83;;;10.00;99.90;;;;;;4987601;28;20298;-86
2023/03/19 06:20:23;;;;;;;32.20;16.23;;;10.10;99.90;;;;;;4993836;28;20231;-87
2023/03/19 06:22:53;;;;;;;32.53;17.80;;;10.10;99.90;;;;;;4999149;28;20216;-87
2023/03/19 06:25:24;;;;;;;36.00;19.27;;;10.10;99.90;;;;;;4983956;28;20246;-89
2023/03/19 06:27:51;;;;;;;37.87;21.20;;;10.10;99.90;;;;;;4974795;28;20201;-86
2023/03/19 06:30:19;;;;;;;36.77;20.37;;;10.00;99.90;;;;;;5003087;28;20222;-87
2023/03/19 06:32:47;;;;;;;33.57;19.60;;;10.10;99.90;;;;;;4989018;28;20241;-89
2023/03/19 06:35:14;;;;;;;35.10;19.33;;;10.10;99.90;;;;;;4983088;28;20207;-87
2023/03/19 06:37:41;;;;;;;36.83;20.07;;;10.10;99.90;;;;;;4987123;28;21033;-89
2023/03/19 06:40:09;;;;;;;35.13;19.60;;;10.20;99.90;;;;;;4995046;28;20224;-88
2023/03/19 06:42:59;;;;;;;;;;;;;;;;;;;;;
2023/03/19 06:45:28;;;;;;;35.47;19.07;;;10.20;99.90;;;;;;5007531;28;20217;-89
2023/03/19 06:47:57;;;;;;;33.63;19.90;;;10.30;99.90;;;;;;4993150;28;20285;-89
2023/03/19 06:50:26;;;;;;;34.57;18.57;;;10.40;99.90;;;;;;4991551;28;20277;-91
2023/03/19 06:52:55;;;;;;;31.40;17.93;;;10.50;99.90;;;;;;4993656;28;20228;-89
2023/03/19 06:55:26;;;;;;;30.57;17.80;;;10.60;99.90;;;;;;5007600;28;20226;-92
2023/03/19 06:57:58;;;;;;;30.43;18.03;;;10.70;99.90;;;;;;4995110;28;20245;-92
2023/03/19 07:00:25;;;;;;;31.43;18.50;;;10.70;99.90;;;;;;4995506;28;20206;-88
2023/03/19 07:02:53;;;;;;;31.03;17.60;;;10.80;99.90;;;;;;4982555;28;20237;-89
2023/03/19 07:05:23;;;;;;;32.77;19.47;;;10.80;99.90;;;;;;4968078;28;20215;-90
2023/03/19 07:08:10;;;;;;;29.73;18.00;;;10.80;99.90;;;;;;4981837;28;20211;-90
2023/03/19 07:10:39;;;;;;;32.33;18.23;;;10.70;99.90;;;;;;4991786;28;20743;-87
2023/03/19 07:13:07;;;;;;;31.63;18.37;;;10.80;99.90;;;;;;4973443;28;20277;-89
2023/03/19 07:15:39;;;;;;;31.23;19.07;;;10.80;99.90;;;;;;4976533;28;20773;-90
2023/03/19 07:18:10;;;;;;;34.83;20.00;;;10.80;99.90;;;;;;4995804;28;20199;-91
2023/03/19 07:20:44;;;;;;;33.60;18.73;;;11.00;99.90;;;;;;4976737;28;20604;-88
2023/03/19 07:23:33;;;;;;;26.07;17.53;;;11.60;99.90;;;;;;4986783;28;20206;-90
2023/03/19 07:26:02;;;;;;;26.63;17.43;;;12.30;99.90;;;;;;5004774;28;20199;-90
2023/03/19 07:28:31;;;;;;;26.40;16.57;;;12.70;99.90;;;;;;5006531;28;20207;-91
2023/03/19 07:31:06;;;;;;;27.70;17.37;;;12.80;99.90;;;;;;5007081;28;20199;-90
2023/03/19 07:33:35;;;;;;;29.47;17.77;;;12.80;99.90;;;;;;4988556;28;20222;-89
2023/03/19 07:36:15;;;;;;;28.93;17.47;;;12.80;99.90;;;;;;4985881;28;20195;-91
2023/03/19 07:39:02;;;;;;;29.63;18.30;;;12.80;99.90;;;;;;5005044;28;20203;-91
2023/03/19 07:41:47;;;;;;;29.20;18.53;;;12.70;99.90;;;;;;4993060;28;20195;-88
2023/03/19 07:44:28;;;;;;;32.40;18.77;;;12.50;99.90;;;;;;4990040;28;20270;-89
2023/03/19 07:47:06;;;;;;;27.93;18.73;;;12.60;99.90;;;;;;4984549;28;20242;-90
2023/03/19 07:49:53;;;;;;;31.10;19.67;;;12.60;99.90;;;;;;4990536;28;20647;-90
2023/03/19 07:52:25;;;;;;;33.87;21.03;;;12.50;99.90;;;;;;4988150;28;20229;-89
2023/03/19 07:55:13;;;;;;;34.17;21.33;;;12.50;99.90;;;;;;4991459;28;20207;-91
2023/03/19 07:57:57;;;;;;;36.10;21.83;;;12.30;99.90;;;;;;4987549;28;21004;-91
2023/03/19 08:00:24;;;;;;;33.53;21.47;;;12.20;99.90;;;;;;5006207;28;20242;-91
2023/03/19 08:03:01;;;;;;;30.90;19.53;;;12.20;99.90;;;;;;5002239;28;20238;-91
2023/03/19 08:05:35;;;;;;;29.60;18.20;;;12.20;99.90;;;;;;4989803;28;20203;-91
2023/03/19 08:08:06;;;;;;;27.90;17.33;;;12.20;99.90;;;;;;4967590;28;20199;-90
2023/03/19 08:10:37;;;;;;;31.40;18.67;;;12.10;99.90;;;;;;4990211;28;20267;-89
2023/03/19 08:13:15;;;;;;;28.20;17.57;;;12.30;99.90;;;;;;4994733;28;20226;-91
2023/03/19 08:15:42;;;;;;;28.80;17.23;;;12.20;99.90;;;;;;4986854;28;20791;-83
2023/03/19 08:18:10;;;;;;;27.27;17.33;;;12.30;99.90;;;;;;4966655;28;20220;-84
2023/03/19 08:20:40;;;;;;;27.03;18.20;;;12.40;99.90;;;;;;4968987;28;20611;-85
2023/03/19 08:23:07;;;;;;;28.37;17.53;;;12.40;99.90;;;;;;4966012;28;20714;-84
2023/03/19 08:25:36;;;;;;;27.10;17.17;;;12.30;99.90;;;;;;4966803;28;20288;-86
2023/03/19 08:28:03;;;;;;;31.67;18.77;;;12.40;99.90;;;;;;4968845;28;20219;-84
2023/03/19 08:30:30;;;;;;;28.03;16.80;;;12.40;99.90;;;;;;4968455;28;20758;-85
2023/03/19 08:32:58;;;;;;;24.60;16.40;;;12.50;99.90;;;;;;4967104;28;20286;-84
2023/03/19 08:35:28;;;;;;;28.77;17.67;;;12.60;99.90;;;;;;4968095;28;20509;-83
2023/03/19 08:37:56;;;;;;;30.83;17.83;;;12.70;99.90;;;;;;4968127;28;20223;-86
2023/03/19 08:40:23;;;;;;;28.87;18.37;;;12.70;99.90;;;;;;4964124;28;20680;-85
2023/03/19 08:42:51;;;;;;;31.17;18.70;;;12.80;99.90;;;;;;4979633;28;20249;-86
2023/03/19 08:45:18;;;;;;;28.17;18.10;;;12.80;99.90;;;;;;4981019;28;21031;-83
2023/03/19 08:47:48;;;;;;;29.97;18.43;;;12.80;99.90;;;;;;4974203;28;20220;-85
2023/03/19 08:50:22;;;;;;;33.07;20.23;;;12.80;99.90;;;;;;4963033;28;20356;-87
2023/03/19 08:53:05;;;;;;;33.40;19.47;;;12.70;99.90;;;;;;4979182;28;20231;-90
2023/03/19 08:55:42;;;;;;;29.70;19.00;;;12.70;99.90;;;;;;4987371;28;20215;-88
2023/03/19 08:58:12;;;;;;;33.60;20.03;;;12.80;99.90;;;;;;4990685;28;20211;-89
2023/03/19 09:00:42;;;;;;;34.20;20.67;;;12.80;99.90;;;;;;4989518;28;20220;-88
2023/03/19 09:03:11;;;;;;;35.23;20.83;;;12.80;99.90;;;;;;4992156;28;20292;-88
2023/03/19 09:05:48;;;;;;;33.33;19.70;;;12.90;99.90;;;;;;4991339;28;20199;-90
2023/03/19 09:08:30;;;;;;;34.07;20.10;;;13.00;99.90;;;;;;4987866;28;20216;-88
2023/03/19 09:11:03;;;;;;;37.03;22.53;;;12.80;99.90;;;;;;4984937;28;20196;-88
2023/03/19 09:13:32;;;;;;;35.03;20.97;;;13.10;99.90;;;;;;4969986;28;20224;-88
2023/03/19 09:16:05;;;;;;;33.50;20.20;;;13.20;99.90;;;;;;4971084;28;20291;-88
2023/03/19 09:18:34;;;;;;;33.47;20.73;;;13.20;99.90;;;;;;4990285;28;20256;-88
2023/03/19 09:21:06;;;;;;;36.37;20.77;;;13.30;99.90;;;;;;5004456;28;20250;-89
2023/03/19 09:23:34;;;;;;;32.07;20.40;;;13.40;99.90;;;;;;4979850;28;20204;-86
2023/03/19 09:26:07;;;;;;;34.93;20.77;;;13.50;99.90;;;;;;4989464;28;20562;-85
2023/03/19 09:28:34;;;;;;;31.00;19.00;;;13.60;99.90;;;;;;5003589;28;20199;-84
2023/03/19 09:31:05;;;;;;;33.00;19.63;;;13.60;99.90;;;;;;4993387;28;20200;-84
2023/03/19 09:33:37;;;;;;;32.30;17.70;;;13.60;99.90;;;;;;4995847;28;20323;-96
2023/03/19 09:36:18;;;;;;;28.07;17.70;;;13.80;99.90;;;;;;4981990;28;20222;-90
2023/03/19 09:38:51;;;;;;;26.70;17.33;;;14.10;99.90;;;;;;4988855;28;20219;-91
2023/03/19 09:42:07;;;;;;;29.23;17.37;;;14.30;99.90;;;;;;4988699;28;20195;-91
2023/03/19 09:45:08;;;;;;;26.20;15.33;;;14.60;99.90;;;;;;4987800;28;20207;-91
2023/03/19 09:47:54;;;;;;;27.98;16.75;;;15.00;99.90;;;;;;4991901;28;20226;-90
2023/03/19 09:50:38;;;;;;;23.20;16.02;;;15.30;99.90;;;;;;4994930;28;20191;-91
2023/03/19 09:57:23;;;;;;;28.20;16.67;;;15.80;99.90;;;;;;5022551;28;20195;-91
2023/03/19 10:00:23;;;;;;;26.48;17.00;;;16.10;99.90;;;;;;4980446;28;20215;-91
2023/03/19 10:03:07;;;;;;;24.30;15.68;;;16.30;99.90;;;;;;4989203;28;20230;-92
2023/03/19 10:05:59;;;;;;;23.02;15.32;;;16.60;99.90;;;;;;4995267;28;20223;-89
2023/03/19 10:08:57;;;;;;;26.60;15.90;;;16.80;99.90;;;;;;4978695;28;20259;-91
2023/03/19 10:11:56;;;;;;;24.63;15.85;;;16.90;99.90;;;;;;5009180;28;20290;-90
2023/03/19 10:15:18;;;;;;;22.52;14.88;;;17.10;99.90;;;;;;4996335;28;20246;-91
2023/03/19 10:18:14;;;;;;;22.30;15.15;;;17.10;99.90;;;;;;5010450;28;20233;-93
2023/03/19 10:21:09;;;;;;;20.80;14.23;;;17.10;99.90;;;;;;4997363;28;20207;-92
2023/03/19 10:24:33;;;;;;;20.63;14.85;;;17.10;99.90;;;;;;5006927;28;20189;-92
2023/03/19 10:27:34;;;;;;;21.33;14.90;;;17.10;99.90;;;;;;4997423;28;20195;-91
2023/03/19 10:30:20;;;;;;;21.42;14.77;;;17.10;99.90;;;;;;4975524;28;20275;-91
2023/03/19 10:33:08;;;;;;;24.02;15.48;;;17.20;99.90;;;;;;5007553;28;20223;-92
2023/03/19 10:38:56;;;;;;;24.98;14.85;;;17.20;99.90;;;;;;5005894;28;20656;-91
2023/03/19 10:41:43;;;;;;;18.20;13.63;;;17.10;99.90;;;;;;4987810;28;20234;-92
2023/03/19 10:44:37;;;;;;;20.75;13.35;;;17.00;99.90;;;;;;4983628;28;20215;-85
2023/03/19 10:47:25;;;;;;;21.10;13.98;;;17.00;99.90;;;;;;4961108;28;20297;-94
2023/03/19 10:50:02;;;;;;;19.65;13.15;;;16.90;99.90;;;;;;4982828;28;20215;-85
2023/03/19 10:52:50;;;;;;;18.67;12.55;;;16.70;99.90;;;;;;4996524;28;20222;-94
2023/03/19 10:55:32;;;;;;;20.52;12.30;;;16.90;99.90;;;;;;4987731;28;20207;-95
2023/03/19 10:58:19;;;;;;;16.92;11.63;;;16.80;99.90;;;;;;4984316;28;20706;-82
2023/03/19 11:00:56;;;;;;;17.50;11.48;;;16.80;99.90;;;;;;4990964;28;20920;-86
2023/03/19 11:04:31;;;;;;;;;;;;;;;;;;;;;
2023/03/19 11:07:32;;;;;;;14.80;9.60;;;17.10;99.90;;;;;;4999533;28;20211;-86
2023/03/19 11:10:17;;;;;;;14.60;10.65;;;17.20;99.90;;;;;;4987651;28;20207;-90
2023/03/19 11:13:27;;;;;;;14.98;8.98;;;17.30;99.90;;;;;;4987118;28;20227;-91
2023/03/19 11:16:01;;;;;;;12.80;9.13;;;17.50;99.90;;;;;;4981700;28;20249;-91
2023/03/19 11:18:48;;;;;;;14.35;9.35;;;17.60;99.90;;;;;;4987680;28;20242;-92
2023/03/19 11:21:28;;;;;;;16.27;10.57;;;17.70;99.90;;;;;;4987657;28;20366;-96
2023/03/19 11:24:40;;;;;;;;;;;;;;;;;;;;;
2023/03/19 11:27:14;;;;;;;12.35;8.43;;;17.80;99.90;;;;;;4984866;28;20644;-91
2023/03/19 11:30:10;;;;;;;13.77;8.45;;;17.70;99.90;;;;;;4986005;28;20238;-93
2023/03/19 11:33:08;;;;;;;14.00;9.65;;;17.80;99.90;;;;;;4983855;28;20338;-92
2023/03/19 11:35:43;;;;;;;12.48;8.55;;;17.90;99.90;;;;;;4969940;28;20227;-93
2023/03/19 11:38:41;;;;;;;16.40;10.40;;;18.00;99.90;;;;;;4973624;28;20229;-92
2023/03/19 11:41:36;;;;;;;16.83;10.80;;;17.90;99.90;;;;;;4986891;28;20570;-88
2023/03/19 11:44:25;;;;;;;14.80;10.50;;;17.90;99.90;;;;;;4996274;28;20898;-89
2023/03/19 11:47:11;;;;;;;14.05;9.85;;;17.60;99.90;;;;;;4975226;28;20200;-89
2023/03/19 11:50:17;;;;;;;13.90;10.15;;;17.50;99.90;;;;;;4980999;28;20273;-88
2023/03/19 11:53:03;;;;;;;19.30;12.10;;;17.50;99.90;;;;;;4987672;28;20203;-89
2023/03/19 11:55:48;;;;;;;19.08;11.73;;;17.70;99.90;;;;;;4979903;28;20207;-89
2023/03/19 11:58:49;;;;;;;19.75;11.35;;;17.60;99.90;;;;;;4977688;28;20298;-88
2023/03/19 12:01:54;;;;;;;17.25;11.90;;;17.70;99.90;;;;;;4985785;28;20253;-94
2023/03/19 12:05:07;;;;;;;23.08;12.82;;;17.70;99.90;;;;;;4986921;28;20684;-92
2023/03/19 12:07:43;;;;;;;20.33;12.52;;;17.80;99.90;;;;;;4985698;28;20191;-93
2023/03/19 12:11:14;;;;;;;21.88;13.65;;;17.80;99.90;;;;;;4990382;28;20207;-92
2023/03/19 12:14:08;;;;;;;26.17;13.85;;;17.80;99.90;;;;;;4927283;29;20225;-91
2023/03/19 12:17:19;;;;;;;22.00;13.43;;;17.90;99.90;;;;;;4944597;29;20257;-90
2023/03/19 12:20:14;;;;;;;22.10;14.35;;;17.90;99.90;;;;;;4999189;28;20203;-91
2023/03/19 12:23:22;;;;;;;22.33;14.20;;;17.80;99.90;;;;;;4984310;28;20208;-91
2023/03/19 12:26:24;;;;;;;21.13;13.73;;;17.80;99.90;;;;;;4983770;28;20206;-93
2023/03/19 12:29:00;;;;;;;22.17;11.25;;;17.80;99.90;;;;;;4983804;28;20191;-92
2023/03/19 12:31:55;;;;;;;20.52;11.93;;;17.60;99.90;;;;;;4984717;28;20207;-93
2023/03/19 12:34:37;;;;;;;16.55;9.98;;;17.50;99.90;;;;;;4976750;28;20240;-92
2023/03/19 12:37:55;;;;;;;20.05;10.10;;;17.50;99.90;;;;;;4973151;28;20223;-93
2023/03/19 12:44:20;;;;;;;20.75;11.85;;;17.60;99.90;;;;;;5040566;22;20735;-82
2023/03/19 12:47:02;;;;;;;19.70;11.07;;;17.40;99.90;;;;;;4994503;28;20261;-81
2023/03/19 12:49:40;;;;;;;18.00;11.27;;;17.50;99.90;;;;;;4997852;28;20207;-81
2023/03/19 12:52:19;;;;;;;19.60;9.93;;;17.70;99.90;;;;;;4993796;28;20294;-82
2023/03/19 12:54:54;;;;;;;20.38;10.43;;;17.90;99.90;;;;;;5001435;28;20218;-82
2023/03/19 12:57:31;;;;;;;22.73;12.25;;;18.00;99.90;;;;;;4994688;28;20540;-82
2023/03/19 13:00:09;;;;;;;17.90;11.77;;;18.00;99.90;;;;;;4992025;28;20199;-82
2023/03/19 13:02:46;;;;;;;17.73;10.60;;;17.80;99.90;;;;;;4979207;28;20215;-82
2023/03/19 13:05:43;;;;;;;18.30;11.65;;;17.80;99.90;;;;;;4997244;28;20647;-80
2023/03/19 13:08:26;;;;;;;17.50;10.77;;;17.70;99.90;;;;;;4996200;28;20270;-82
2023/03/19 13:10:53;;;;;;;20.05;12.65;;;17.70;99.90;;;;;;4994083;28;20227;-79
2023/03/19 13:13:45;;;;;;;17.83;11.63;;;17.70;99.90;;;;;;4996621;28;20524;-79
2023/03/19 13:16:46;;;;;;;19.35;11.88;;;17.70;99.90;;;;;;4993289;28;20200;-78
2023/03/19 13:19:26;;;;;;;17.48;11.68;;;17.60;99.90;;;;;;4990997;28;20234;-78
2023/03/19 13:22:01;;;;;;;20.63;12.40;;;17.50;99.90;;;;;;4994372;28;20290;-79
2023/03/19 13:24:37;;;;;;;21.98;13.07;;;17.30;99.90;;;;;;4992649;28;20294;-79
2023/03/19 13:27:08;;;;;;;22.35;12.40;;;17.00;99.90;;;;;;4991490;28;20218;-77
2023/03/19 13:29:37;;;;;;;19.15;11.57;;;16.80;99.90;;;;;;4992663;28;20568;-78
2023/03/19 13:32:26;;;;;;;21.55;11.75;;;16.70;99.90;;;;;;4990954;28;20601;-79